Greater Rochester International Airport
KROC : rendu visible

Aérodrome :











RETROUVEZ-NOUS SUR...

 
LOGIN :

S'inscrire | Disclaimer

   EN    FR    IT 

 









Légende :    VFR   VFR Marginal   IFR   IFR Intensif   IFR Très Intensif
Visi : 
Plafond : 
>= 8 km
>= 3000ft
5 à 8 km
1000 à 3000 ft
1500m à 5 km
500 à 1000 ft
800 à 1500m
200 à 500 ft
< 800m
< 200 ft
Symboles :   Orages  Brouillard  Fortes neiges  Fortes précipitations  Vent > 20 kt






- Altitude de l'aérodrome : 559 ft
- Code IATA : ROC


KROC - Greater Rochester International

DERNIER METAR :
  • 251554Z 21009KT 10SM FEW035 SCT250 27/18 A3007 RMK AO2 SLP183 T02670183

METARs EXPIRÉS :
  • 251454Z 24010KT 10SM FEW030 SCT250 26/18 A3007 RMK AO2 SLP182 T02560178 53004
  • 251354Z 23013KT 10SM FEW050 SCT250 23/17 A3005 RMK AO2 SLP177 T02330167

TAF KROC
Valide du 25 à 15h jusqu'au 26 à 12h UTC


251529Z 2515/2612 22012G18KT P6SM FEW030 SCT250
FM251800 02010KT P6SM BKN035
FM252100 02010KT P6SM SCT040
FM260000 VRB03KT P6SM SCT250
FIR KZOB / Amérique du Nord



MET'MAP, la Météo Aéronautique d'un coup d'oeil ! - Copyright ORBIFLY Décembre 2007 - Disclaimer

ORBIFLY MET'MAP TEAM :

Programmation & Développement : Alexandra Zaïnal
Sur une idée originale de : Baudouin d'Aumeries
Assistance à la programmation : Marc-Olivier Méhu
Soutien technique & logistique : Manuel Goepfert

Contact : metmap@orbifly.com




SOURCES & CREDITS :

   NOAA       Earth
Advisory